Weather History for Pine River, MN

Change the Weather History Date:

Thursday, May 23, 2013

  Actual Average Record
Temperature  
Mean Temperature 52 °F -  
Max Temperature 62 °F 65 °F 82 °F (2006)
Min Temperature 41 °F 41 °F 35 °F (2003)
Degree Days  
Heating Degree Days 13    
Growing Degree Days 2 (Base 50)    
Moisture  
Dew Point 32 °F    
Average Humidity 51    
Maximum Humidity 93    
Minimum Humidity 22    
Precipitation  
Precipitation 0.00 in - - ()
Sea Level Pressure  
Sea Level Pressure 30.28 in    
Wind  
Wind Speed 4 mph (NNE)    
Max Wind Speed 10 mph    
Max Gust Speed 20 mph    
Visibility 10 miles    
Events      
Averages and records for this station are not official NWS values.
T = Trace of Precipitation, MM = Missing Value Source: NWS Daily Summary

Daily Weather History Graph

Daily Weather History Graph

Search for Another Location

Airport:

Trip Planner

Search our weather history database for the weather conditions in past years. The results will help you decide how hot, cold, wet, or windy it might be!

Date:

Astronomy

May. 23, 2013 Rise Set
Actual Time 5:34 AM CDT 8:55 PM CDT
Civil Twilight 4:57 AM CDT 9:32 PM CDT
Nautical Twilight 4:08 AM CDT 10:21 PM CDT
Astronomical Twilight 3:06 AM CDT 11:23 PM CDT
Moon 7:24 PM CDT (5/23) 4:26 AM CDT (5/23)
Length of Visible Light 16h 35m
Length of Day
15h 20m
Waxing Gibbous, 97% of the Moon is Illuminated
May 23
Waxing Gibbous
May 24
Full
May 31
Last Quarter
Jun 8
New
Jun 16
First Quarter

Hourly Weather History & Observations

Time (CDT) Temp. Windchill Dew Point Humidity Pressure Visibility Wind Dir Wind Speed Gust Speed Precip Events Conditions
12:13 AM 44.6 °F - 42.8 °F 93% 30.11 in 10.0 mi Calm Calm - N/A   Clear
12:33 AM 44.6 °F - 42.8 °F 93% 30.12 in 10.0 mi Calm Calm - N/A   Scattered Clouds
12:53 AM 44.6 °F - 42.8 °F 93% 30.13 in 10.0 mi Calm Calm - N/A   Clear
1:13 AM 44.6 °F - 42.8 °F 93% 30.13 in 10.0 mi Calm Calm - N/A   Mostly Cloudy
1:33 AM 46.4 °F 43.5 °F 42.8 °F 87% 30.14 in 10.0 mi North 5.8 mph - N/A   Overcast
1:53 AM 48.2 °F - 42.8 °F 82% 30.14 in 10.0 mi North 6.9 mph - N/A   Mostly Cloudy
2:13 AM 48.2 °F - 42.8 °F 82% 30.15 in 10.0 mi North 5.8 mph - N/A   Mostly Cloudy
2:33 AM 50.0 °F - 41.0 °F 71% 30.16 in 10.0 mi NNE 5.8 mph - N/A   Overcast
2:53 AM 50.0 °F - 41.0 °F 71% 30.17 in 10.0 mi North 5.8 mph - N/A   Overcast
3:13 AM 50.0 °F - 41.0 °F 71% 30.18 in 10.0 mi NNE 4.6 mph - N/A   Overcast
3:33 AM 51.8 °F - 39.2 °F 62% 30.19 in 10.0 mi NNE 6.9 mph - N/A   Overcast
3:53 AM 50.0 °F - 39.2 °F 66% 30.20 in 10.0 mi NNE 5.8 mph - N/A   Overcast
4:12 AM 50.0 °F - 39.2 °F 66% 30.21 in 10.0 mi NNE 5.8 mph - N/A   Overcast
4:33 AM 48.2 °F - 39.2 °F 71% 30.22 in 10.0 mi NNE 5.8 mph - N/A   Mostly Cloudy
4:53 AM 46.4 °F 44.3 °F 37.4 °F 71% 30.23 in 10.0 mi NNE 4.6 mph - N/A   Scattered Clouds
5:13 AM 46.4 °F 44.3 °F 37.4 °F 71% 30.24 in 10.0 mi NE 4.6 mph - N/A   Clear
5:33 AM 44.6 °F 43.1 °F 37.4 °F 76% 30.25 in 10.0 mi NNE 3.5 mph - N/A   Clear
5:53 AM 44.6 °F 41.4 °F 37.4 °F 76% 30.26 in 10.0 mi NNE 5.8 mph - N/A   Clear
6:13 AM 44.6 °F 42.2 °F 37.4 °F 76% 30.27 in 10.0 mi NE 4.6 mph - N/A   Clear
6:33 AM 44.6 °F - 37.4 °F 76% 30.28 in 10.0 mi Calm Calm - N/A   Clear
6:52 AM 46.4 °F 44.3 °F 37.4 °F 71% 30.28 in 10.0 mi NNE 4.6 mph - N/A   Clear
7:13 AM 46.4 °F 43.5 °F 35.6 °F 66% 30.29 in 10.0 mi NE 5.8 mph - N/A   Clear
7:33 AM 46.4 °F 42.9 °F 33.8 °F 62% 30.30 in 10.0 mi East 6.9 mph - N/A   Clear
7:52 AM 46.4 °F 41.5 °F 33.8 °F 62% 30.30 in 10.0 mi ENE 10.4 mph - N/A   Clear
8:13 AM 48.2 °F - 33.8 °F 58% 30.31 in 10.0 mi NE 5.8 mph - N/A   Clear
8:33 AM 48.2 °F - 33.8 °F 58% 30.32 in 10.0 mi ENE 8.1 mph - N/A   Clear
8:53 AM 48.2 °F - 32.0 °F 54% 30.32 in 10.0 mi ENE 6.9 mph - N/A   Clear
9:13 AM 50.0 °F - 30.2 °F 47% 30.32 in 10.0 mi NNE 9.2 mph - N/A   Clear
9:31 AM 50.0 °F - 30.2 °F 47% 30.33 in 10.0 mi NNE 8.1 mph - N/A   Clear
9:53 AM 51.8 °F - 30.2 °F 44% 30.33 in 10.0 mi ENE 9.2 mph - N/A   Clear
10:13 AM 51.8 °F - 30.2 °F 44% 30.33 in 10.0 mi NE 6.9 mph - N/A   Clear
10:32 AM 51.8 °F - 28.4 °F 41% 30.33 in 10.0 mi NE 5.8 mph - N/A   Clear
10:53 AM 51.8 °F - 28.4 °F 41% 30.33 in 10.0 mi NNE 6.9 mph - N/A   Clear
11:13 AM 53.6 °F - 26.6 °F 35% 30.33 in 10.0 mi North 9.2 mph - N/A   Clear
11:32 AM 55.4 °F - 26.6 °F 33% 30.33 in 10.0 mi North 10.4 mph 16.1 mph N/A   Clear
11:52 AM 55.4 °F - 26.6 °F 33% 30.33 in 10.0 mi North 5.8 mph - N/A   Clear
12:13 PM 55.4 °F - 24.8 °F 31% 30.34 in 10.0 mi NNE 8.1 mph - N/A   Clear
12:32 PM 57.2 °F - 24.8 °F 29% 30.34 in 10.0 mi NE 8.1 mph 19.6 mph N/A   Clear
12:53 PM 57.2 °F - 24.8 °F 29% 30.33 in 10.0 mi NNE 6.9 mph - N/A   Clear
1:13 PM 57.2 °F - 26.6 °F 31% 30.33 in 10.0 mi ENE 8.1 mph - N/A   Clear
1:33 PM 57.2 °F - 24.8 °F 29% 30.33 in 10.0 mi NNE 8.1 mph - N/A   Clear
1:53 PM 59.0 °F - 24.8 °F 27% 30.33 in 10.0 mi ENE 5.8 mph - N/A   Clear
2:13 PM 59.0 °F - 21.2 °F 23% 30.33 in 10.0 mi Calm Calm - N/A   Clear
2:33 PM 60.8 °F - 23.0 °F 23% 30.33 in 10.0 mi North 8.1 mph - N/A   Clear
2:52 PM 60.8 °F - 26.6 °F 27% 30.32 in 10.0 mi North 8.1 mph - N/A   Clear
3:13 PM 60.8 °F - 24.8 °F 25% 30.32 in 10.0 mi NW 9.2 mph - N/A   Clear
3:32 PM 60.8 °F - 26.6 °F 27% 30.32 in 10.0 mi NNE 5.8 mph - N/A   Clear
3:52 PM 60.8 °F - 24.8 °F 25% 30.32 in 10.0 mi NNW 6.9 mph - N/A   Clear
4:13 PM 60.8 °F - 26.6 °F 27% 30.31 in 10.0 mi Calm Calm - N/A   Clear
4:33 PM 62.6 °F - 24.8 °F 24% 30.31 in 10.0 mi North 8.1 mph - N/A   Clear
4:53 PM 62.6 °F - 26.6 °F 26% 30.31 in 10.0 mi North 8.1 mph - N/A   Clear
5:12 PM 62.6 °F - 24.8 °F 24% 30.31 in 10.0 mi Calm Calm - N/A   Clear
5:33 PM 62.6 °F - 26.6 °F 26% 30.31 in 10.0 mi NNE 8.1 mph - N/A   Clear
5:53 PM 62.6 °F - 24.8 °F 24% 30.30 in 10.0 mi Calm Calm - N/A   Clear
6:10 PM 62.6 °F - 26.6 °F 26% 30.30 in 10.0 mi NW 5.8 mph - N/A   Clear
6:32 PM 62.6 °F - 26.6 °F 26% 30.30 in 10.0 mi Calm Calm - N/A   Clear
6:53 PM 62.6 °F - 24.8 °F 24% 30.30 in 10.0 mi Calm Calm - N/A   Clear
7:12 PM 62.6 °F - 23.0 °F 22% 30.30 in 10.0 mi ENE 4.6 mph - N/A   Clear
7:32 PM 62.6 °F - 24.8 °F 24% 30.30 in 10.0 mi North 4.6 mph - N/A   Clear
7:52 PM 62.6 °F - 24.8 °F 24% 30.30 in 10.0 mi Calm Calm - N/A   Clear
8:12 PM 60.8 °F - 28.4 °F 29% 30.30 in 10.0 mi Calm Calm - N/A   Clear
8:33 PM 59.0 °F - 26.6 °F 29% 30.30 in 10.0 mi Calm Calm - N/A   Clear
8:53 PM 55.4 °F - 32.0 °F 41% 30.30 in 10.0 mi Calm Calm - N/A   Clear
9:12 PM 51.8 °F - 33.8 °F 50% 30.31 in 10.0 mi Calm Calm - N/A   Clear
9:32 PM 50.0 °F - 35.6 °F 58% 30.31 in 10.0 mi Calm Calm - N/A   Clear
9:52 PM 48.2 °F - 32.0 °F 54% 30.32 in 10.0 mi Calm Calm - N/A   Clear
10:13 PM 46.4 °F - 30.2 °F 53% 30.33 in 10.0 mi Calm Calm - N/A   Clear
10:33 PM 46.4 °F - 39.2 °F 76% 30.33 in 10.0 mi Calm Calm - N/A   Clear
10:53 PM 44.6 °F - 37.4 °F 76% 30.34 in 10.0 mi Calm Calm - N/A   Clear
11:12 PM 42.8 °F - 35.6 °F 76% 30.34 in 10.0 mi Calm Calm - N/A   Clear
11:33 PM 42.8 °F - 35.6 °F 76% 30.34 in 10.0 mi Calm Calm - N/A   Clear
11:52 PM 41.0 °F - 33.8 °F 76% 30.34 in 10.0 mi Calm Calm - N/A   Clear